createdAt,value
2022-10-31T00:00:16.725Z,87.45
2022-10-31T00:01:16.659Z,87.24
2022-10-31T00:02:16.781Z,87.20
2022-10-31T00:03:16.665Z,87.14
2022-10-31T00:04:16.620Z,87.35
2022-10-31T00:05:17.632Z,87.70
2022-10-31T00:06:16.612Z,88.00
2022-10-31T00:07:16.614Z,88.45
2022-10-31T00:08:16.628Z,89.37
2022-10-31T00:09:16.583Z,89.47
2022-10-31T00:10:16.575Z,89.32
2022-10-31T00:11:16.588Z,88.92
2022-10-31T00:12:16.605Z,88.55
2022-10-31T00:13:16.720Z,88.65
2022-10-31T00:14:16.570Z,88.61
2022-10-31T00:15:16.572Z,89.26
2022-10-31T00:16:16.543Z,89.51
2022-10-31T00:17:16.581Z,90.23
2022-10-31T00:18:16.538Z,89.92
2022-10-31T00:19:16.534Z,89.31
2022-10-31T00:20:16.516Z,90.64
2022-10-31T00:21:16.509Z,90.19
2022-10-31T00:22:16.526Z,89.47
2022-10-31T00:23:16.532Z,89.58
2022-10-31T00:24:16.524Z,89.58
2022-10-31T00:25:16.531Z,90.43
2022-10-31T00:26:16.481Z,90.43
2022-10-31T00:27:16.483Z,90.33
2022-10-31T00:28:16.576Z,90.12
2022-10-31T00:29:16.499Z,89.58
2022-10-31T00:30:16.480Z,89.47
2022-10-31T00:31:16.461Z,89.32
2022-10-31T00:32:16.478Z,89.12
2022-10-31T00:33:16.422Z,88.71
2022-10-31T00:34:16.451Z,89.12
2022-10-31T00:35:16.452Z,88.76
2022-10-31T00:36:17.435Z,88.76
2022-10-31T00:37:16.415Z,88.45
2022-10-31T00:38:16.495Z,89.17
2022-10-31T00:39:16.410Z,89.41
2022-10-31T00:40:16.395Z,89.61
2022-10-31T00:41:16.439Z,89.31
2022-10-31T00:42:16.400Z,89.47
2022-10-31T00:43:16.421Z,89.26
2022-10-31T00:44:16.400Z,89.17
2022-10-31T00:45:16.423Z,89.11
2022-10-31T00:46:16.380Z,89.17
2022-10-31T00:47:16.353Z,89.26
2022-10-31T00:48:16.350Z,88.92
2022-10-31T00:49:17.238Z,88.71
2022-10-31T00:50:16.348Z,87.70
2022-10-31T00:51:16.390Z,88.00
2022-10-31T00:52:16.323Z,87.32
2022-10-31T00:53:16.318Z,87.73
2022-10-31T00:54:16.420Z,88.08
2022-10-31T00:55:16.312Z,88.45
2022-10-31T00:56:16.385Z,88.45
2022-10-31T00:57:16.329Z,88.65
2022-10-31T00:58:16.307Z,88.65
2022-10-31T00:59:16.292Z,88.35
2022-10-31T01:00:16.298Z,87.43
2022-10-31T01:01:16.362Z,88.04
2022-10-31T01:02:16.472Z,87.53
2022-10-31T01:03:16.279Z,87.63
2022-10-31T01:04:16.262Z,87.49
2022-10-31T01:05:16.243Z,87.38
2022-10-31T01:06:16.238Z,86.77
2022-10-31T01:07:16.263Z,86.53
2022-10-31T01:08:16.217Z,86.29
2022-10-31T01:09:16.222Z,85.47
2022-10-31T01:10:16.217Z,84.82
2022-10-31T01:11:16.225Z,84.51
2022-10-31T01:12:16.204Z,84.72
2022-10-31T01:13:16.233Z,83.90
2022-10-31T01:14:16.741Z,83.65
2022-10-31T01:15:16.195Z,83.39
2022-10-31T01:16:16.207Z,83.15
2022-10-31T01:17:16.158Z,83.09
2022-10-31T01:18:16.166Z,83.29
2022-10-31T01:19:16.229Z,83.09
2022-10-31T01:20:16.160Z,83.53
2022-10-31T01:21:16.142Z,83.57
2022-10-31T01:22:16.148Z,84.98
2022-10-31T01:23:16.130Z,86.51
2022-10-31T01:24:16.139Z,88.18
2022-10-31T01:25:16.107Z,88.29
2022-10-31T01:26:16.906Z,87.88
2022-10-31T01:27:16.107Z,87.37
2022-10-31T01:28:16.168Z,88.08
2022-10-31T01:29:16.094Z,88.18
2022-10-31T01:30:16.091Z,88.04
2022-10-31T01:31:16.119Z,87.53
2022-10-31T01:32:16.095Z,87.43
2022-10-31T01:33:17.070Z,87.02
2022-10-31T01:34:16.714Z,86.16
2022-10-31T01:35:16.065Z,86.47
2022-10-31T01:36:16.039Z,85.75
2022-10-31T01:37:16.055Z,85.75
2022-10-31T01:38:16.039Z,85.96
2022-10-31T01:39:16.076Z,85.59
2022-10-31T01:40:16.018Z,86.00
2022-10-31T01:41:16.003Z,85.69
2022-10-31T01:42:16.025Z,86.30
2022-10-31T01:43:16.046Z,85.75
2022-10-31T01:44:16.021Z,85.79
2022-10-31T01:45:16.002Z,86.24
2022-10-31T01:46:15.999Z,86.76
2022-10-31T01:47:16.034Z,87.26
2022-10-31T01:48:15.972Z,87.37
2022-10-31T01:49:15.995Z,86.10
2022-10-31T01:50:15.979Z,86.35
2022-10-31T01:51:15.959Z,87.30
2022-10-31T01:52:15.953Z,88.12
2022-10-31T01:53:15.946Z,88.12
2022-10-31T01:54:15.936Z,88.08
2022-10-31T01:55:15.935Z,87.30
2022-10-31T01:56:15.929Z,88.23
2022-10-31T01:57:15.954Z,88.53
2022-10-31T01:58:15.972Z,88.88
2022-10-31T01:59:15.903Z,88.43
2022-10-31T02:00:15.923Z,88.57
2022-10-31T02:01:16.108Z,88.98
2022-10-31T02:02:16.036Z,89.64
2022-10-31T02:03:15.905Z,89.80
2022-10-31T02:04:15.893Z,89.84
2022-10-31T02:05:15.875Z,89.43
2022-10-31T02:06:15.863Z,89.53
2022-10-31T02:07:16.650Z,90.19
2022-10-31T02:08:15.879Z,90.60
2022-10-31T02:09:15.842Z,90.66
2022-10-31T02:10:15.853Z,89.90
2022-10-31T02:11:15.858Z,89.70
2022-10-31T02:12:15.831Z,89.18
2022-10-31T02:13:15.954Z,88.68
2022-10-31T02:14:15.828Z,88.17
2022-10-31T02:15:15.820Z,88.78
2022-10-31T02:16:15.826Z,88.88
2022-10-31T02:17:15.839Z,89.18
2022-10-31T02:18:15.814Z,88.78
2022-10-31T02:19:15.794Z,88.78
2022-10-31T02:20:15.827Z,88.88
2022-10-31T02:21:15.787Z,88.84
2022-10-31T02:22:15.782Z,88.26
2022-10-31T02:23:15.847Z,87.96
2022-10-31T02:24:15.766Z,88.98
2022-10-31T02:25:15.764Z,88.88
2022-10-31T02:26:15.758Z,89.29
2022-10-31T02:27:15.767Z,88.78
2022-10-31T02:28:15.877Z,88.94
2022-10-31T02:29:15.754Z,88.74
2022-10-31T02:30:15.750Z,88.70
2022-10-31T02:31:15.747Z,87.98
2022-10-31T02:32:15.725Z,87.77
2022-10-31T02:33:15.746Z,87.02
2022-10-31T02:34:15.719Z,86.61
2022-10-31T02:35:15.699Z,86.30
2022-10-31T02:36:15.695Z,86.51
2022-10-31T02:37:15.690Z,86.20
2022-10-31T02:38:15.700Z,85.94
2022-10-31T02:39:15.686Z,87.30
2022-10-31T02:40:15.699Z,88.02
2022-10-31T02:41:15.667Z,88.53
2022-10-31T02:42:15.663Z,87.96
2022-10-31T02:43:15.686Z,88.68
2022-10-31T02:44:15.639Z,89.90
2022-10-31T02:45:15.686Z,89.50
2022-10-31T02:46:15.626Z,90.36
2022-10-31T02:47:15.636Z,90.25
2022-10-31T02:48:15.635Z,90.05
2022-10-31T02:49:15.634Z,90.00
2022-10-31T02:50:15.611Z,90.00
2022-10-31T02:51:15.623Z,89.18
2022-10-31T02:52:15.615Z,89.09
2022-10-31T02:53:15.798Z,89.64
2022-10-31T02:54:15.595Z,90.09
2022-10-31T02:55:15.603Z,90.30
2022-10-31T02:56:15.598Z,90.70
2022-10-31T02:57:15.615Z,91.73
2022-10-31T02:58:15.660Z,91.01
2022-10-31T02:59:15.578Z,91.31
2022-10-31T03:00:15.550Z,91.26
2022-10-31T03:01:15.684Z,91.93
2022-10-31T03:02:15.724Z,91.26
2022-10-31T03:03:15.547Z,92.38
2022-10-31T03:04:16.202Z,91.87
2022-10-31T03:05:15.554Z,92.38
2022-10-31T03:06:15.545Z,92.59
2022-10-31T03:07:15.570Z,92.69
2022-10-31T03:08:15.515Z,92.44
2022-10-31T03:09:15.510Z,92.14
2022-10-31T03:10:15.501Z,91.27
2022-10-31T03:11:15.497Z,91.33
2022-10-31T03:12:15.495Z,90.52
2022-10-31T03:13:15.563Z,90.72
2022-10-31T03:14:15.495Z,89.39
2022-10-31T03:15:15.484Z,89.50
2022-10-31T03:16:15.460Z,89.39
2022-10-31T03:17:15.472Z,88.84
2022-10-31T03:18:15.480Z,88.43
2022-10-31T03:19:15.475Z,88.33
2022-10-31T03:20:15.457Z,87.47
2022-10-31T03:21:15.475Z,87.47
2022-10-31T03:22:15.458Z,87.47
2022-10-31T03:23:15.449Z,87.23
2022-10-31T03:24:15.442Z,86.96
2022-10-31T03:25:15.472Z,86.35
2022-10-31T03:26:15.476Z,86.04
2022-10-31T03:27:15.412Z,86.18
2022-10-31T03:28:15.441Z,86.65
2022-10-31T03:29:15.408Z,86.29
2022-10-31T03:30:15.411Z,86.55
2022-10-31T03:31:15.391Z,86.55
2022-10-31T03:32:15.381Z,86.55
2022-10-31T03:33:15.371Z,86.59
2022-10-31T03:34:15.395Z,86.73
2022-10-31T03:35:15.369Z,87.29
2022-10-31T03:36:15.358Z,87.96
2022-10-31T03:37:15.402Z,88.06
2022-10-31T03:38:15.340Z,88.47
2022-10-31T03:39:15.419Z,88.37
2022-10-31T03:40:15.342Z,87.65
2022-10-31T03:41:15.345Z,88.00
2022-10-31T03:42:15.324Z,88.62
2022-10-31T03:43:15.372Z,88.92
2022-10-31T03:44:15.335Z,87.84
2022-10-31T03:45:15.301Z,88.70
2022-10-31T03:46:15.306Z,89.62
2022-10-31T03:47:15.346Z,89.62
2022-10-31T03:48:15.301Z,89.51
2022-10-31T03:49:15.280Z,90.13
2022-10-31T03:50:15.295Z,89.51
2022-10-31T03:51:15.272Z,89.58
2022-10-31T03:52:15.264Z,89.68
2022-10-31T03:53:15.263Z,88.86
2022-10-31T03:54:15.258Z,88.65
2022-10-31T03:55:15.260Z,89.72
2022-10-31T03:56:15.246Z,89.45
2022-10-31T03:57:15.305Z,90.32
2022-10-31T03:58:15.264Z,90.62
2022-10-31T03:59:15.224Z,90.97
2022-10-31T04:00:15.224Z,91.96
2022-10-31T04:01:15.431Z,91.96
2022-10-31T04:02:15.283Z,91.65
2022-10-31T04:03:15.204Z,91.44
2022-10-31T04:04:15.202Z,91.65
2022-10-31T04:05:15.246Z,91.55
2022-10-31T04:06:15.185Z,91.30
2022-10-31T04:07:15.163Z,90.79
2022-10-31T04:08:15.183Z,90.13
2022-10-31T04:09:15.169Z,90.17
2022-10-31T04:10:15.255Z,90.28
2022-10-31T04:11:16.171Z,90.17
2022-10-31T04:12:15.161Z,90.37
2022-10-31T04:13:15.204Z,90.83
2022-10-31T04:14:15.150Z,90.69
2022-10-31T04:15:15.125Z,90.17
2022-10-31T04:16:17.150Z,90.17
2022-10-31T04:17:15.349Z,90.99
2022-10-31T04:18:15.118Z,90.89
2022-10-31T04:19:15.163Z,90.48
2022-10-31T04:20:16.139Z,90.17
2022-10-31T04:21:15.103Z,90.37
2022-10-31T04:22:15.127Z,89.72
2022-10-31T04:23:15.074Z,89.62
2022-10-31T04:24:15.091Z,89.51
2022-10-31T04:25:15.071Z,89.47
2022-10-31T04:26:15.079Z,89.37
2022-10-31T04:27:15.694Z,88.82
2022-10-31T04:28:15.727Z,88.00
2022-10-31T04:29:15.074Z,87.38
2022-10-31T04:30:15.700Z,87.76
2022-10-31T04:31:15.069Z,87.29
2022-10-31T04:32:15.055Z,87.29
2022-10-31T04:33:15.040Z,87.29
2022-10-31T04:34:15.159Z,87.22
2022-10-31T04:35:15.094Z,88.39
2022-10-31T04:36:15.029Z,88.18
2022-10-31T04:37:15.008Z,88.39
2022-10-31T04:38:15.006Z,88.29
2022-10-31T04:39:15.043Z,88.90
2022-10-31T04:40:14.999Z,89.66
2022-10-31T04:41:15.002Z,89.90
2022-10-31T04:42:15.006Z,89.66
2022-10-31T04:43:15.043Z,89.87
2022-10-31T04:44:14.977Z,89.76
2022-10-31T04:45:18.375Z,89.72
2022-10-31T04:46:16.702Z,89.42
2022-10-31T04:47:15.122Z,89.06
2022-10-31T04:48:14.965Z,88.14
2022-10-31T04:49:14.965Z,88.14
2022-10-31T04:50:14.977Z,88.20
2022-10-31T04:51:14.945Z,87.63
2022-10-31T04:52:17.233Z,87.02
2022-10-31T04:53:14.942Z,87.53
2022-10-31T04:54:14.925Z,86.91
2022-10-31T04:55:14.922Z,87.12
2022-10-31T04:56:14.913Z,87.63
2022-10-31T04:57:14.900Z,87.63
2022-10-31T04:59:14.927Z,88.49
2022-10-31T05:00:14.900Z,88.04
2022-10-31T05:01:15.004Z,88.35
2022-10-31T05:02:14.969Z,87.84
2022-10-31T05:03:14.859Z,88.56
2022-10-31T05:04:14.880Z,87.84
2022-10-31T05:05:14.852Z,87.18
2022-10-31T05:06:14.851Z,87.38
2022-10-31T05:07:14.879Z,86.32
2022-10-31T05:08:14.848Z,86.16
2022-10-31T05:09:14.841Z,86.98
2022-10-31T05:10:14.824Z,87.08
2022-10-31T05:11:14.829Z,87.29
2022-10-31T05:12:14.811Z,86.71
2022-10-31T05:13:14.862Z,87.16
2022-10-31T05:14:14.832Z,88.70
2022-10-31T05:15:14.831Z,88.39
2022-10-31T05:16:14.780Z,88.80
2022-10-31T05:17:14.775Z,89.04
2022-10-31T05:18:14.787Z,89.00
2022-10-31T05:19:14.791Z,89.21
2022-10-31T05:20:14.779Z,88.59
2022-10-31T05:21:14.752Z,88.80
2022-10-31T05:22:14.757Z,88.29
2022-10-31T05:23:14.754Z,88.18
2022-10-31T05:24:14.726Z,88.39
2022-10-31T05:25:14.783Z,88.18
2022-10-31T05:26:14.732Z,88.64
2022-10-31T05:27:14.723Z,89.15
2022-10-31T05:28:14.735Z,89.04
2022-10-31T05:29:14.716Z,89.25
2022-10-31T05:30:14.712Z,89.36
2022-10-31T05:31:14.701Z,89.51
2022-10-31T05:32:14.681Z,88.80
2022-10-31T05:33:14.682Z,88.39
2022-10-31T05:34:14.693Z,88.04
2022-10-31T05:35:14.681Z,87.43
2022-10-31T05:36:14.712Z,87.22
2022-10-31T05:37:14.662Z,87.32
2022-10-31T05:38:14.714Z,87.47
2022-10-31T05:39:14.646Z,88.64
2022-10-31T05:40:14.641Z,88.18
2022-10-31T05:41:14.652Z,88.23
2022-10-31T05:42:15.223Z,88.08
2022-10-31T05:43:14.694Z,88.43
2022-10-31T05:44:14.633Z,88.53
2022-10-31T05:45:14.619Z,88.64
2022-10-31T05:46:14.669Z,88.84
2022-10-31T05:47:14.605Z,88.27
2022-10-31T05:48:14.613Z,88.78
2022-10-31T05:49:14.608Z,88.98
2022-10-31T05:50:15.223Z,89.09
2022-10-31T05:51:14.564Z,89.33
2022-10-31T05:52:14.584Z,90.36
2022-10-31T05:53:14.580Z,90.16
2022-10-31T05:54:16.002Z,89.64
2022-10-31T05:55:15.560Z,89.64
2022-10-31T05:56:14.560Z,89.60
2022-10-31T05:57:14.571Z,89.56
2022-10-31T05:58:14.555Z,89.15
2022-10-31T05:59:14.543Z,88.18
2022-10-31T06:00:14.679Z,88.59
2022-10-31T06:01:14.641Z,87.84
2022-10-31T06:02:14.508Z,86.85
2022-10-31T06:03:14.535Z,87.16
2022-10-31T06:04:14.534Z,86.81
2022-10-31T06:05:14.631Z,86.61
2022-10-31T06:06:14.504Z,85.85
2022-10-31T06:07:14.476Z,86.05
2022-10-31T06:08:14.776Z,86.57
2022-10-31T06:09:14.478Z,85.96
2022-10-31T06:10:14.455Z,85.75
2022-10-31T06:11:14.481Z,85.79
2022-10-31T06:12:14.478Z,85.38
2022-10-31T06:13:15.188Z,85.58
2022-10-31T06:14:14.436Z,85.93
2022-10-31T06:15:14.440Z,86.24
2022-10-31T06:16:14.429Z,86.34
2022-10-31T06:17:14.431Z,86.10
2022-10-31T06:18:14.434Z,86.16
2022-10-31T06:19:14.468Z,85.79
2022-10-31T06:20:14.486Z,85.83
2022-10-31T06:21:17.884Z,86.55
2022-10-31T06:22:14.412Z,86.85
2022-10-31T06:23:14.504Z,86.91
2022-10-31T06:24:14.388Z,86.20
2022-10-31T06:25:14.393Z,86.36
2022-10-31T06:26:14.404Z,86.16
2022-10-31T06:27:14.403Z,85.61
2022-10-31T06:28:15.380Z,85.14
2022-10-31T06:29:14.383Z,85.03
2022-10-31T06:30:14.360Z,85.34
2022-10-31T06:31:14.399Z,85.24
2022-10-31T06:32:14.345Z,84.99
2022-10-31T06:33:14.376Z,84.89
2022-10-31T06:34:14.331Z,85.17
2022-10-31T06:35:14.319Z,85.99
2022-10-31T06:36:14.373Z,85.44
2022-10-31T06:37:14.327Z,85.44
2022-10-31T06:38:14.337Z,84.79
2022-10-31T06:39:14.322Z,83.87
2022-10-31T06:40:14.315Z,84.97
2022-10-31T06:41:14.291Z,85.03
2022-10-31T06:42:14.282Z,84.83
2022-10-31T06:43:14.357Z,84.99
2022-10-31T06:44:14.322Z,85.10
2022-10-31T06:45:14.273Z,83.83
2022-10-31T06:46:14.279Z,83.73
2022-10-31T06:47:14.326Z,83.62
2022-10-31T06:48:18.469Z,83.22
2022-10-31T06:49:15.270Z,82.67
2022-10-31T06:50:14.242Z,82.46
2022-10-31T06:51:14.237Z,82.77
2022-10-31T06:52:14.233Z,82.46
2022-10-31T06:53:14.236Z,82.20
2022-10-31T06:54:14.237Z,82.81
2022-10-31T06:55:14.210Z,83.56
2022-10-31T06:56:14.220Z,83.76
2022-10-31T06:57:14.196Z,83.76
2022-10-31T06:58:14.201Z,83.97
2022-10-31T06:59:14.201Z,83.69
2022-10-31T07:00:14.197Z,82.53
2022-10-31T07:01:14.331Z,81.71
2022-10-31T07:02:14.312Z,81.20
2022-10-31T07:03:14.173Z,81.71
2022-10-31T07:04:14.212Z,81.57
2022-10-31T07:05:14.154Z,81.26
2022-10-31T07:06:14.187Z,81.29
2022-10-31T07:07:14.172Z,79.58
2022-10-31T07:08:14.137Z,78.22
2022-10-31T07:09:14.196Z,77.40
2022-10-31T07:10:14.205Z,78.39
2022-10-31T07:11:14.127Z,78.39
2022-10-31T07:12:14.124Z,78.16
2022-10-31T07:13:14.120Z,77.37
2022-10-31T07:14:14.140Z,77.75
2022-10-31T07:15:14.108Z,77.10
2022-10-31T07:16:14.168Z,77.17
2022-10-31T07:17:14.160Z,76.31
2022-10-31T07:18:14.124Z,76.04
2022-10-31T07:19:14.068Z,76.08
2022-10-31T07:20:14.085Z,77.10
2022-10-31T07:21:14.076Z,76.76
2022-10-31T07:22:14.060Z,76.11
2022-10-31T07:23:14.051Z,75.70
2022-10-31T07:24:14.052Z,75.57
2022-10-31T07:25:14.051Z,75.43
2022-10-31T07:26:14.035Z,73.57
2022-10-31T07:27:14.024Z,73.87
2022-10-31T07:28:14.029Z,73.83
2022-10-31T07:29:14.807Z,72.78
2022-10-31T07:30:14.066Z,72.04
2022-10-31T07:31:14.785Z,71.47
2022-10-31T07:32:13.996Z,73.13
2022-10-31T07:33:14.013Z,73.19
2022-10-31T07:34:14.001Z,72.75
2022-10-31T07:35:14.726Z,72.41
2022-10-31T07:36:13.973Z,71.80
2022-10-31T07:37:13.948Z,70.96
2022-10-31T07:38:14.010Z,72.65
2022-10-31T07:39:13.932Z,73.16
2022-10-31T07:40:14.031Z,72.65
2022-10-31T07:41:13.953Z,72.38
2022-10-31T07:42:13.924Z,71.47
2022-10-31T07:43:14.758Z,71.57
2022-10-31T07:44:15.520Z,72.72
2022-10-31T07:45:13.974Z,72.38
2022-10-31T07:46:13.951Z,72.72
2022-10-31T07:47:13.935Z,72.52
2022-10-31T07:48:13.980Z,71.57
2022-10-31T07:49:13.917Z,70.18
2022-10-31T07:50:13.967Z,69.48
2022-10-31T07:51:14.717Z,68.71
2022-10-31T07:52:13.880Z,68.20
2022-10-31T07:53:13.866Z,68.74
2022-10-31T07:54:13.846Z,67.83
2022-10-31T07:55:13.849Z,66.29
2022-10-31T07:56:13.833Z,64.98
2022-10-31T07:57:14.599Z,63.85
2022-10-31T07:58:13.813Z,64.07
2022-10-31T07:59:13.824Z,64.15
2022-10-31T08:00:13.800Z,64.92
2022-10-31T08:01:13.813Z,65.55
2022-10-31T08:02:13.802Z,65.25
2022-10-31T08:03:13.804Z,66.93
2022-10-31T08:04:13.809Z,67.33
2022-10-31T08:05:13.768Z,67.19
2022-10-31T08:06:13.781Z,67.07
2022-10-31T08:07:13.774Z,66.59
2022-10-31T08:08:13.787Z,66.96
2022-10-31T08:09:13.744Z,68.57
2022-10-31T08:10:14.744Z,67.73
2022-10-31T08:11:13.741Z,68.13
2022-10-31T08:12:13.734Z,67.67
2022-10-31T08:13:13.749Z,66.56
2022-10-31T08:14:13.729Z,63.96
2022-10-31T08:15:13.780Z,61.79
2022-10-31T08:16:15.762Z,60.52
2022-10-31T08:17:13.692Z,59.29
2022-10-31T08:18:13.964Z,58.53
2022-10-31T08:19:13.692Z,57.53
2022-10-31T08:20:13.732Z,56.07
2022-10-31T08:21:13.672Z,56.83
2022-10-31T08:22:13.720Z,58.03
2022-10-31T08:23:15.705Z,57.23
2022-10-31T08:24:14.625Z,56.93
2022-10-31T08:25:14.585Z,57.53
2022-10-31T08:26:13.646Z,56.90
2022-10-31T08:27:13.633Z,57.13
2022-10-31T08:28:13.624Z,56.55
2022-10-31T08:29:13.632Z,55.55
2022-10-31T08:30:13.641Z,55.32
2022-10-31T08:31:13.623Z,54.37
2022-10-31T08:32:13.924Z,54.04
2022-10-31T08:33:13.720Z,52.92
2022-10-31T08:34:13.698Z,52.07
2022-10-31T08:35:16.483Z,51.03
2022-10-31T08:36:13.579Z,49.40
2022-10-31T08:37:13.577Z,50.55
2022-10-31T08:38:13.581Z,51.89
2022-10-31T08:39:13.602Z,52.09
2022-10-31T08:40:13.572Z,51.57
2022-10-31T08:41:13.564Z,52.04
2022-10-31T08:42:14.578Z,50.98
2022-10-31T08:43:13.584Z,49.06
2022-10-31T08:44:13.680Z,48.34
2022-10-31T08:45:13.535Z,48.80
2022-10-31T08:46:13.526Z,50.50
2022-10-31T08:47:13.530Z,49.60
2022-10-31T08:48:13.526Z,51.57
2022-10-31T08:49:13.529Z,51.75
2022-10-31T08:50:14.203Z,50.52
2022-10-31T08:51:13.492Z,50.57
2022-10-31T08:52:14.572Z,54.47
2022-10-31T08:53:14.503Z,54.67
2022-10-31T08:54:13.483Z,53.02
2022-10-31T08:55:13.464Z,53.12
2022-10-31T08:56:13.500Z,52.97
2022-10-31T08:57:13.456Z,52.47
2022-10-31T08:58:13.506Z,51.27
2022-10-31T08:59:13.435Z,52.89
2022-10-31T09:00:13.455Z,52.07
2022-10-31T09:01:13.652Z,52.17
2022-10-31T09:02:13.568Z,52.27
2022-10-31T09:03:13.427Z,53.24
2022-10-31T09:04:13.403Z,54.32
2022-10-31T09:05:13.436Z,52.14
2022-10-31T09:06:13.514Z,50.70
2022-10-31T09:07:21.441Z,50.10
2022-10-31T09:08:16.869Z,51.22
2022-10-31T09:09:14.391Z,51.47
2022-10-31T09:10:13.386Z,51.25
2022-10-31T09:11:13.350Z,54.06
2022-10-31T09:12:13.383Z,54.72
2022-10-31T09:13:13.406Z,58.53
2022-10-31T09:14:13.346Z,59.16
2022-10-31T09:15:13.338Z,58.86
2022-10-31T09:16:13.350Z,60.60
2022-10-31T09:17:13.322Z,59.69
2022-10-31T09:18:13.315Z,58.37
2022-10-31T09:19:13.309Z,55.97
2022-10-31T09:20:13.298Z,54.89
2022-10-31T09:21:13.318Z,53.31
2022-10-31T09:22:13.290Z,51.17
2022-10-31T09:23:13.283Z,50.57
2022-10-31T09:24:13.281Z,49.23
2022-10-31T09:25:13.271Z,50.85
2022-10-31T09:26:13.282Z,49.04
2022-10-31T09:27:13.259Z,49.91
2022-10-31T09:28:13.263Z,49.31
2022-10-31T09:29:13.258Z,48.59
2022-10-31T09:30:13.243Z,48.81
2022-10-31T09:31:13.243Z,47.25
2022-10-31T09:32:13.247Z,48.79
2022-10-31T09:33:13.234Z,50.45
2022-10-31T09:34:14.241Z,51.22
2022-10-31T09:35:13.287Z,52.62
2022-10-31T09:36:13.209Z,51.05
2022-10-31T09:37:13.215Z,49.38
2022-10-31T09:38:13.209Z,49.95
2022-10-31T09:39:13.186Z,50.75
2022-10-31T09:40:13.346Z,52.29
2022-10-31T09:41:15.295Z,51.59
2022-10-31T09:42:13.186Z,53.66
2022-10-31T09:43:13.156Z,55.02
2022-10-31T09:44:13.166Z,54.69
2022-10-31T09:45:13.147Z,53.11
2022-10-31T09:46:13.148Z,52.84
2022-10-31T09:47:13.131Z,53.56
2022-10-31T09:48:13.186Z,55.09
2022-10-31T09:49:13.172Z,54.66
2022-10-31T09:50:13.130Z,53.09
2022-10-31T09:51:13.117Z,50.28
2022-10-31T09:52:13.668Z,48.72
2022-10-31T09:53:13.175Z,47.78
2022-10-31T09:54:13.103Z,46.86
2022-10-31T09:55:13.098Z,45.83
2022-10-31T09:56:13.767Z,45.07
2022-10-31T09:57:13.091Z,44.58
2022-10-31T09:58:14.039Z,44.04
2022-10-31T09:59:13.066Z,43.57
2022-10-31T10:00:13.061Z,43.92
2022-10-31T10:01:13.192Z,44.31
2022-10-31T10:02:13.096Z,46.25
2022-10-31T10:03:13.058Z,47.50
2022-10-31T10:04:14.668Z,48.69
2022-10-31T10:05:15.045Z,47.36
2022-10-31T10:06:14.036Z,47.02
2022-10-31T10:07:13.047Z,44.58
2022-10-31T10:08:13.020Z,44.09
2022-10-31T10:09:13.108Z,45.07
2022-10-31T10:10:13.014Z,44.42
2022-10-31T10:11:13.001Z,46.97
2022-10-31T10:12:13.071Z,48.82
2022-10-31T10:13:13.365Z,49.93
2022-10-31T10:14:12.981Z,48.62
2022-10-31T10:15:13.008Z,49.11
2022-10-31T10:16:12.988Z,48.27
2022-10-31T10:17:12.991Z,46.94
2022-10-31T10:18:12.952Z,46.38
2022-10-31T10:19:13.092Z,44.46
2022-10-31T10:20:12.945Z,44.34
2022-10-31T10:21:13.107Z,43.41
2022-10-31T10:22:12.937Z,43.51
2022-10-31T10:23:13.955Z,43.57
2022-10-31T10:24:12.985Z,46.11
2022-10-31T10:25:12.970Z,48.15
2022-10-31T10:26:13.778Z,46.23
2022-10-31T10:27:12.913Z,46.48
2022-10-31T10:28:12.921Z,46.16
2022-10-31T10:29:12.907Z,45.32
2022-10-31T10:30:12.894Z,44.75
2022-10-31T10:31:12.911Z,44.24
2022-10-31T10:32:12.925Z,44.34
2022-10-31T10:33:13.011Z,44.14
2022-10-31T10:34:12.871Z,43.98
2022-10-31T10:35:12.863Z,44.24
2022-10-31T10:36:12.907Z,43.59
2022-10-31T10:37:12.872Z,42.95
2022-10-31T10:38:12.847Z,42.24
2022-10-31T10:39:12.848Z,41.53
2022-10-31T10:40:12.839Z,42.73
2022-10-31T10:41:12.837Z,43.38
2022-10-31T10:42:12.850Z,44.23
2022-10-31T10:43:12.809Z,42.00
2022-10-31T10:44:12.811Z,41.02
2022-10-31T10:45:12.806Z,42.34
2022-10-31T10:46:12.812Z,40.92
2022-10-31T10:47:12.800Z,41.08
2022-10-31T10:48:12.812Z,40.64
2022-10-31T10:49:12.805Z,38.25
2022-10-31T10:50:12.769Z,38.54
2022-10-31T10:51:25.559Z,40.08
2022-10-31T10:53:14.752Z,45.57
2022-10-31T10:54:12.772Z,46.50
2022-10-31T10:55:12.823Z,46.48
2022-10-31T10:56:12.876Z,46.28
2022-10-31T10:57:12.737Z,47.53
2022-10-31T10:58:12.724Z,48.63
2022-10-31T10:59:12.730Z,46.97
2022-10-31T11:00:12.726Z,46.58
2022-10-31T11:01:12.827Z,46.01
2022-10-31T11:02:12.701Z,44.61
2022-10-31T11:03:12.731Z,46.61
2022-10-31T11:04:12.717Z,45.84
2022-10-31T11:05:12.692Z,47.78
2022-10-31T11:06:12.701Z,47.00
2022-10-31T11:07:12.672Z,45.38
2022-10-31T11:08:12.672Z,44.37
2022-10-31T11:09:12.760Z,44.20
2022-10-31T11:10:12.656Z,44.82
2022-10-31T11:11:12.648Z,45.60
2022-10-31T11:12:12.640Z,45.57
2022-10-31T11:13:12.616Z,44.37
2022-10-31T11:14:12.617Z,44.81
2022-10-31T11:15:12.664Z,47.07
2022-10-31T11:16:12.657Z,49.10
2022-10-31T11:17:12.595Z,49.10
2022-10-31T11:18:12.609Z,50.23
2022-10-31T11:19:12.586Z,50.21
2022-10-31T11:20:16.314Z,48.02
2022-10-31T11:21:14.570Z,46.56
2022-10-31T11:22:12.569Z,46.04
2022-10-31T11:23:12.563Z,46.73
2022-10-31T11:24:12.561Z,46.56
2022-10-31T11:25:12.564Z,46.41
2022-10-31T11:26:12.558Z,45.06
2022-10-31T11:27:12.552Z,44.11
2022-10-31T11:28:12.663Z,44.07
2022-10-31T11:29:12.580Z,42.04
2022-10-31T11:30:12.574Z,40.86
2022-10-31T11:31:12.551Z,41.02
2022-10-31T11:32:12.598Z,40.82
2022-10-31T11:33:12.497Z,41.41
2022-10-31T11:34:12.553Z,40.09
2022-10-31T11:35:12.494Z,39.69
2022-10-31T11:36:12.495Z,39.56
2022-10-31T11:37:12.484Z,40.62
2022-10-31T11:38:12.463Z,42.33
2022-10-31T11:39:12.500Z,43.89
2022-10-31T11:40:12.470Z,44.15
2022-10-31T11:41:12.472Z,45.87
2022-10-31T11:42:12.475Z,46.61
2022-10-31T11:43:12.472Z,46.91
2022-10-31T11:44:12.444Z,47.34
2022-10-31T11:45:12.468Z,48.38
2022-10-31T11:46:12.442Z,50.31
2022-10-31T11:47:12.445Z,48.61
2022-10-31T11:48:12.424Z,46.88
2022-10-31T11:49:12.414Z,47.13
2022-10-31T11:50:13.417Z,48.03
2022-10-31T11:51:12.432Z,48.53
2022-10-31T11:52:12.430Z,46.76
2022-10-31T11:53:12.411Z,46.48
2022-10-31T11:54:12.382Z,47.20
2022-10-31T11:55:12.740Z,46.86
2022-10-31T11:56:12.514Z,46.37
2022-10-31T11:57:12.403Z,46.04
2022-10-31T11:58:12.384Z,46.44
2022-10-31T11:59:12.364Z,46.56
2022-10-31T12:00:12.426Z,46.44
2022-10-31T12:01:12.419Z,44.82
2022-10-31T12:02:13.639Z,43.60
2022-10-31T12:03:12.376Z,43.48
2022-10-31T12:04:12.328Z,43.36
2022-10-31T12:05:14.246Z,43.57
2022-10-31T12:06:12.316Z,45.65
2022-10-31T12:07:12.341Z,46.26
2022-10-31T12:08:13.272Z,47.72
2022-10-31T12:09:12.304Z,47.22
2022-10-31T12:10:12.320Z,48.97
2022-10-31T12:11:12.287Z,50.58
2022-10-31T12:12:12.332Z,50.09
2022-10-31T12:13:12.280Z,50.31
2022-10-31T12:14:12.308Z,50.73
2022-10-31T12:15:12.302Z,51.84
2022-10-31T12:16:12.284Z,52.69
2022-10-31T12:17:12.264Z,53.53
2022-10-31T12:18:12.274Z,54.63
2022-10-31T12:19:12.253Z,53.51
2022-10-31T12:20:12.218Z,54.17
2022-10-31T12:21:13.696Z,52.79
2022-10-31T12:22:12.213Z,53.01
2022-10-31T12:23:12.249Z,54.48
2022-10-31T12:24:12.303Z,55.30
2022-10-31T12:25:12.227Z,56.20
2022-10-31T12:26:12.242Z,56.37
2022-10-31T12:27:12.184Z,55.47
2022-10-31T12:28:12.292Z,54.55
2022-10-31T12:29:12.836Z,55.27
2022-10-31T12:30:12.185Z,56.89
2022-10-31T12:31:12.212Z,56.59
2022-10-31T12:32:12.164Z,55.67
2022-10-31T12:33:12.158Z,55.15
2022-10-31T12:34:12.172Z,55.77
2022-10-31T12:35:12.155Z,56.30
2022-10-31T12:36:15.225Z,56.89
2022-10-31T12:37:12.170Z,57.42
2022-10-31T12:38:12.159Z,57.49
2022-10-31T12:39:12.120Z,56.14
2022-10-31T12:40:12.142Z,54.82
2022-10-31T12:41:12.118Z,54.35
2022-10-31T12:42:12.151Z,54.50
2022-10-31T12:43:12.103Z,54.33
2022-10-31T12:44:12.092Z,54.53
2022-10-31T12:45:12.090Z,54.75
2022-10-31T12:46:12.107Z,54.48
2022-10-31T12:47:12.792Z,55.18
2022-10-31T12:48:12.075Z,55.30
2022-10-31T12:49:12.140Z,55.33
2022-10-31T12:50:12.071Z,55.47
2022-10-31T12:51:12.155Z,54.23
2022-10-31T12:52:12.031Z,53.01
2022-10-31T12:53:13.130Z,52.98
2022-10-31T12:54:12.027Z,51.67